Time;durP1;ratioP1;P1;durP2;ratioP2;P2;SDS_P1;SDS_P2;PMS_P1;PMS_P2;Temp;Humidity;BMP_temperature;BMP_pressure;BME280_temperature;BME280_humidity;BME280_pressure;Samples;Min_cycle;Max_cycle;Signal;HPM_P1;HPM_P2
2024/01/20 00:02:43;;;;;;;36.15;24.85;;;-4.20;99.90;;;;;;5060962;28;20610;-71
2024/01/20 00:05:29;;;;;;;35.88;24.77;;;-4.40;99.90;;;;;;5060841;28;20202;-71
2024/01/20 00:08:14;;;;;;;38.33;24.52;;;-4.30;99.90;;;;;;5060147;28;20695;-71
2024/01/20 00:11:00;;;;;;;37.05;25.05;;;-4.20;99.90;;;;;;5053970;28;20229;-71
2024/01/20 00:13:45;;;;;;;31.95;21.98;;;-4.30;99.90;;;;;;5055804;28;20692;-71
2024/01/20 00:16:31;;;;;;;35.65;23.15;;;-4.50;99.90;;;;;;5066609;28;20349;-71
2024/01/20 00:19:18;;;;;;;36.33;24.15;;;-4.70;99.90;;;;;;5058641;28;20203;-71
2024/01/20 00:22:04;;;;;;;30.85;21.63;;;-4.70;99.90;;;;;;5065120;28;20795;-71
2024/01/20 00:24:50;;;;;;;31.63;21.63;;;-4.70;99.90;;;;;;5060979;28;20225;-71
2024/01/20 00:27:35;;;;;;;34.42;22.42;;;-4.60;99.90;;;;;;5066118;28;20342;-71
2024/01/20 00:30:21;;;;;;;33.05;20.67;;;-4.50;99.90;;;;;;5066487;28;20294;-71
2024/01/20 00:33:08;;;;;;;40.00;22.52;;;-4.30;99.90;;;;;;5061083;28;20204;-71
2024/01/20 00:35:56;;;;;;;30.33;20.55;;;-4.30;99.90;;;;;;5058019;28;20566;-71
2024/01/20 00:38:42;;;;;;;31.38;21.05;;;-4.30;99.90;;;;;;5061382;28;20337;-72
2024/01/20 00:41:27;;;;;;;27.35;18.60;;;-4.50;99.90;;;;;;5065888;28;20230;-72
2024/01/20 00:44:13;;;;;;;28.60;20.15;;;-4.40;99.90;;;;;;5059232;28;20233;-72
2024/01/20 00:46:59;;;;;;;26.02;18.65;;;-4.50;99.90;;;;;;5051505;28;20211;-72
2024/01/20 00:49:44;;;;;;;27.40;19.95;;;-4.60;99.90;;;;;;5063301;28;20207;-72
2024/01/20 00:52:32;;;;;;;34.97;22.08;;;-4.50;99.90;;;;;;5071361;28;20596;-71
2024/01/20 00:55:18;;;;;;;26.52;18.75;;;-4.60;99.90;;;;;;5061028;28;20218;-71
2024/01/20 00:58:04;;;;;;;26.52;18.17;;;-4.50;99.90;;;;;;5064906;28;20621;-71
2024/01/20 01:00:49;;;;;;;27.98;19.38;;;-4.60;99.90;;;;;;5051895;28;20571;-72
2024/01/20 01:03:36;;;;;;;27.38;19.30;;;-4.70;99.90;;;;;;5064674;28;20228;-71
2024/01/20 01:06:22;;;;;;;26.83;16.98;;;-4.60;99.90;;;;;;5068962;28;20901;-71
2024/01/20 01:09:09;;;;;;;27.67;18.10;;;-4.50;99.90;;;;;;5060851;28;20216;-71
2024/01/20 01:11:54;;;;;;;28.40;17.88;;;-4.70;99.90;;;;;;5061236;28;20350;-71
2024/01/20 01:14:40;;;;;;;26.73;19.33;;;-4.70;99.90;;;;;;5060578;28;20202;-72
2024/01/20 01:17:25;;;;;;;27.08;18.70;;;-5.10;99.90;;;;;;5062869;28;20198;-72
2024/01/20 01:20:12;;;;;;;29.05;18.25;;;-5.20;99.90;;;;;;5064090;28;20217;-71
2024/01/20 01:22:57;;;;;;;28.90;19.15;;;-5.30;99.90;;;;;;5061843;28;20211;-70
2024/01/20 01:25:44;;;;;;;27.13;18.45;;;-5.30;99.90;;;;;;5066432;28;20575;-70
2024/01/20 01:28:30;;;;;;;25.58;18.33;;;-5.20;99.90;;;;;;5065058;28;20263;-70
2024/01/20 01:31:16;;;;;;;27.67;17.15;;;-5.10;99.90;;;;;;5059250;28;20367;-70
2024/01/20 01:34:02;;;;;;;27.73;19.10;;;-4.90;99.90;;;;;;5059714;28;20789;-72
2024/01/20 01:36:47;;;;;;;22.50;16.00;;;-4.80;99.90;;;;;;5066246;28;20221;-70
2024/01/20 01:39:33;;;;;;;32.45;18.50;;;-4.90;99.90;;;;;;5059682;28;20225;-70
2024/01/20 01:42:20;;;;;;;26.40;17.92;;;-5.20;99.90;;;;;;5060114;28;20274;-71
2024/01/20 01:45:06;;;;;;;30.17;17.10;;;-5.20;99.90;;;;;;5060857;28;20682;-70
2024/01/20 01:47:53;;;;;;;27.00;16.83;;;-5.20;99.90;;;;;;5055883;28;20266;-70
2024/01/20 01:50:38;;;;;;;29.95;18.20;;;-5.10;99.90;;;;;;5059811;28;20511;-70
2024/01/20 01:53:24;;;;;;;28.80;18.83;;;-5.00;99.90;;;;;;5065639;28;20329;-71
2024/01/20 01:56:10;;;;;;;24.40;17.15;;;-4.90;99.90;;;;;;5060597;28;20216;-71
2024/01/20 01:58:58;;;;;;;24.38;16.88;;;-4.90;99.90;;;;;;5062209;28;20205;-70
2024/01/20 02:01:44;;;;;;;26.48;17.85;;;-4.90;99.90;;;;;;5060763;28;20322;-70
2024/01/20 02:04:29;;;;;;;25.05;16.13;;;-5.00;99.90;;;;;;5066714;28;20212;-70
2024/01/20 02:07:16;;;;;;;27.05;19.45;;;-5.10;99.90;;;;;;5059676;28;20218;-70
2024/01/20 02:10:02;;;;;;;25.13;16.52;;;-5.10;99.90;;;;;;5060743;28;20211;-70
2024/01/20 02:12:48;;;;;;;27.20;17.60;;;-5.00;99.90;;;;;;5060478;28;20210;-70
2024/01/20 02:15:37;;;;;;;27.00;16.95;;;-5.20;99.90;;;;;;5059154;28;20582;-69
2024/01/20 02:18:23;;;;;;;22.40;14.70;;;-5.10;99.90;;;;;;5062655;28;20297;-72
2024/01/20 02:21:08;;;;;;;24.17;15.60;;;-5.20;99.90;;;;;;5055749;28;20591;-70
2024/01/20 02:23:57;;;;;;;24.35;16.30;;;-5.30;99.90;;;;;;5054293;28;20215;-69
2024/01/20 02:26:43;;;;;;;21.02;14.82;;;-5.70;99.90;;;;;;5058979;28;20323;-72
2024/01/20 02:29:28;;;;;;;25.95;15.40;;;-5.70;99.90;;;;;;5060426;28;20687;-73
2024/01/20 02:32:14;;;;;;;23.77;17.02;;;-5.90;99.90;;;;;;5054918;28;20230;-70
2024/01/20 02:35:00;;;;;;;24.20;16.48;;;-6.00;99.90;;;;;;5061642;28;20810;-70
2024/01/20 02:37:45;;;;;;;28.63;16.40;;;-5.70;99.90;;;;;;5058719;28;20208;-70
2024/01/20 02:40:32;;;;;;;28.30;15.25;;;-5.60;99.90;;;;;;5062799;28;20212;-70
2024/01/20 02:43:17;;;;;;;21.60;14.90;;;-5.50;99.90;;;;;;5066796;28;20292;-70
2024/01/20 02:46:03;;;;;;;25.27;16.42;;;-5.70;99.90;;;;;;5065972;28;20249;-71
2024/01/20 02:48:49;;;;;;;27.50;17.30;;;-5.80;99.90;;;;;;5061334;28;20719;-70
2024/01/20 02:51:35;;;;;;;35.83;18.13;;;-6.00;99.90;;;;;;5054848;28;20763;-69
2024/01/20 02:54:20;;;;;;;29.73;16.38;;;-6.30;99.90;;;;;;5060538;28;20819;-70
2024/01/20 02:57:07;;;;;;;27.77;17.70;;;-6.10;99.90;;;;;;5060293;28;20217;-71
2024/01/20 02:59:53;;;;;;;24.20;16.55;;;-6.10;99.90;;;;;;5061841;28;20711;-70
2024/01/20 03:02:38;;;;;;;27.48;17.65;;;-6.10;99.90;;;;;;5059923;28;20224;-70
2024/01/20 03:05:24;;;;;;;25.10;17.42;;;-6.10;99.90;;;;;;5064804;28;20576;-69
2024/01/20 03:08:10;;;;;;;29.00;15.90;;;-6.10;99.90;;;;;;5061310;28;20682;-70
2024/01/20 03:10:55;;;;;;;25.50;16.15;;;-6.20;99.90;;;;;;5057717;28;20228;-70
2024/01/20 03:13:43;;;;;;;27.48;18.27;;;-6.30;99.90;;;;;;5064167;28;20564;-70
2024/01/20 03:16:28;;;;;;;25.98;17.58;;;-6.40;99.90;;;;;;5058915;28;20204;-70
2024/01/20 03:19:14;;;;;;;29.83;18.25;;;-6.20;99.90;;;;;;5062770;28;20291;-70
2024/01/20 03:21:59;;;;;;;25.08;16.63;;;-6.20;99.90;;;;;;5057954;28;20659;-69
2024/01/20 03:24:47;;;;;;;25.75;15.30;;;-6.10;99.90;;;;;;5063141;28;20224;-69
2024/01/20 03:27:33;;;;;;;25.63;15.82;;;-6.00;99.90;;;;;;5061514;28;20213;-72
2024/01/20 03:30:20;;;;;;;26.08;16.45;;;-6.00;99.90;;;;;;5064049;28;20591;-70
2024/01/20 03:33:06;;;;;;;26.50;15.05;;;-6.10;99.90;;;;;;5056047;28;20228;-69
2024/01/20 03:35:52;;;;;;;22.90;15.43;;;-6.00;99.90;;;;;;5063068;28;20733;-70
2024/01/20 03:38:37;;;;;;;21.55;14.60;;;-6.00;99.90;;;;;;5069486;28;20204;-71
2024/01/20 03:41:23;;;;;;;21.33;14.75;;;-6.00;99.90;;;;;;5064686;28;20240;-70
2024/01/20 03:44:09;;;;;;;22.27;14.65;;;-6.10;99.90;;;;;;5068961;28;20211;-70
2024/01/20 03:46:56;;;;;;;19.48;13.38;;;-6.00;99.90;;;;;;5062188;28;20263;-72
2024/01/20 03:49:41;;;;;;;21.52;14.70;;;-6.00;99.90;;;;;;5061651;28;20210;-71
2024/01/20 03:52:27;;;;;;;22.95;14.93;;;-6.20;99.90;;;;;;5069116;28;20227;-70
2024/01/20 03:55:13;;;;;;;24.83;15.55;;;-6.40;99.90;;;;;;5065556;28;20230;-69
2024/01/20 03:57:58;;;;;;;23.77;15.25;;;-6.60;99.90;;;;;;5065824;28;20218;-69
2024/01/20 04:00:44;;;;;;;23.25;15.93;;;-6.70;99.90;;;;;;5063342;28;20223;-70
2024/01/20 04:03:31;;;;;;;20.73;14.30;;;-6.70;99.90;;;;;;5064819;28;20246;-69
2024/01/20 04:06:16;;;;;;;20.58;13.77;;;-6.80;99.90;;;;;;5068150;28;20210;-69
2024/01/20 04:09:03;;;;;;;23.80;14.55;;;-6.90;99.90;;;;;;5068870;28;20205;-69
2024/01/20 04:11:49;;;;;;;26.80;16.10;;;-6.80;99.90;;;;;;5072496;28;20234;-70
2024/01/20 04:14:35;;;;;;;25.92;15.13;;;-6.80;99.90;;;;;;5058442;28;20259;-69
2024/01/20 04:17:21;;;;;;;23.30;15.93;;;-6.50;99.90;;;;;;5061020;28;20693;-70
2024/01/20 04:20:10;;;;;;;22.95;15.65;;;-6.30;99.90;;;;;;5065221;28;20204;-69
2024/01/20 04:22:55;;;;;;;22.80;14.20;;;-6.30;99.90;;;;;;5057550;28;20679;-69
2024/01/20 04:25:41;;;;;;;21.15;14.68;;;-6.50;99.90;;;;;;5061986;28;20206;-70
2024/01/20 04:28:26;;;;;;;20.70;14.65;;;-6.50;99.90;;;;;;5068818;28;20343;-71
2024/01/20 04:31:12;;;;;;;20.65;13.77;;;-6.50;99.90;;;;;;5060962;28;20229;-70
2024/01/20 04:33:58;;;;;;;20.73;14.77;;;-6.60;99.90;;;;;;5062145;28;20348;-69
2024/01/20 04:36:45;;;;;;;23.48;14.35;;;-6.80;99.90;;;;;;5067604;28;20667;-70
2024/01/20 04:39:31;;;;;;;24.80;14.65;;;-6.90;99.90;;;;;;5053610;28;20213;-70
2024/01/20 04:42:16;;;;;;;25.20;14.60;;;-6.90;99.90;;;;;;5065865;28;20603;-69
2024/01/20 04:45:04;;;;;;;23.55;14.50;;;-6.90;99.90;;;;;;5057052;28;20556;-70
2024/01/20 04:47:49;;;;;;;25.48;14.77;;;-7.00;99.90;;;;;;5065102;28;20204;-69
2024/01/20 04:50:34;;;;;;;24.02;15.25;;;-7.20;99.90;;;;;;5064946;28;20204;-70
2024/01/20 04:53:22;;;;;;;21.17;13.60;;;-7.40;99.90;;;;;;5066761;28;20240;-72
2024/01/20 04:56:07;;;;;;;26.92;14.60;;;-7.60;99.90;;;;;;5065036;28;20581;-70
2024/01/20 04:58:53;;;;;;;24.70;14.68;;;-7.60;99.90;;;;;;5063526;28;20209;-70
2024/01/20 05:01:39;;;;;;;26.65;15.77;;;-7.50;99.90;;;;;;5064543;28;20242;-69
2024/01/20 05:04:25;;;;;;;23.10;15.45;;;-7.20;99.90;;;;;;5067871;28;20209;-70
2024/01/20 05:07:11;;;;;;;22.67;15.93;;;-6.90;99.90;;;;;;5067206;28;20210;-73
2024/01/20 05:09:58;;;;;;;26.15;16.65;;;-6.70;99.90;;;;;;5062518;28;20210;-69
2024/01/20 05:12:43;;;;;;;30.70;17.17;;;-6.70;99.90;;;;;;5064770;28;20719;-71
2024/01/20 05:15:29;;;;;;;24.55;15.35;;;-6.70;99.90;;;;;;5064259;28;20279;-70
2024/01/20 05:18:15;;;;;;;26.85;15.23;;;-7.00;99.90;;;;;;5062333;28;20692;-70
2024/01/20 05:21:01;;;;;;;27.30;16.40;;;-6.80;99.90;;;;;;5062149;28;20229;-69
2024/01/20 05:23:47;;;;;;;27.02;16.48;;;-6.90;99.90;;;;;;5062870;28;20710;-69
2024/01/20 05:26:34;;;;;;;28.55;15.13;;;-6.90;99.90;;;;;;5065386;28;20293;-69
2024/01/20 05:29:19;;;;;;;25.88;16.10;;;-6.90;99.90;;;;;;5068233;28;20281;-69
2024/01/20 05:32:05;;;;;;;26.77;16.50;;;-7.00;99.90;;;;;;5058487;28;20234;-72
2024/01/20 05:34:51;;;;;;;27.67;17.30;;;-6.90;99.90;;;;;;5067899;28;20228;-69
2024/01/20 05:37:37;;;;;;;34.53;17.58;;;-6.90;99.90;;;;;;5068162;28;20290;-68
2024/01/20 05:40:22;;;;;;;24.15;16.30;;;-6.70;99.90;;;;;;5058927;28;20208;-69
2024/01/20 05:43:09;;;;;;;24.35;15.65;;;-6.60;99.90;;;;;;5055071;28;20215;-70
2024/01/20 05:45:55;;;;;;;25.35;16.15;;;-6.50;99.90;;;;;;5066498;28;20668;-69
2024/01/20 05:48:40;;;;;;;25.90;16.95;;;-6.60;99.90;;;;;;5063558;28;20215;-70
2024/01/20 05:51:26;;;;;;;22.67;15.82;;;-6.60;99.90;;;;;;5064921;28;20354;-69
2024/01/20 05:54:12;;;;;;;26.38;15.32;;;-6.60;99.90;;;;;;5059165;28;20343;-72
2024/01/20 05:56:57;;;;;;;25.88;16.08;;;-6.60;99.90;;;;;;5065003;28;20328;-70
2024/01/20 05:59:44;;;;;;;27.80;18.00;;;-7.00;99.90;;;;;;5067807;28;20264;-69
2024/01/20 06:02:30;;;;;;;28.38;16.85;;;-7.20;99.90;;;;;;5060486;28;20224;-72
2024/01/20 06:05:16;;;;;;;22.50;14.88;;;-7.30;99.90;;;;;;5059561;28;20205;-69
2024/01/20 06:08:01;;;;;;;23.63;15.25;;;-7.30;99.90;;;;;;5068116;28;20244;-69
2024/01/20 06:10:47;;;;;;;27.48;16.02;;;-7.30;99.90;;;;;;5064190;28;20231;-70
2024/01/20 06:13:32;;;;;;;28.75;16.15;;;-7.30;99.90;;;;;;5070626;28;20283;-70
2024/01/20 06:16:21;;;;;;;28.33;16.38;;;-7.40;99.90;;;;;;5065383;28;20228;-71
2024/01/20 06:19:07;;;;;;;27.77;15.98;;;-7.30;99.90;;;;;;5061930;28;20579;-71
2024/01/20 06:21:52;;;;;;;26.55;15.07;;;-7.10;99.90;;;;;;5057260;28;20233;-70
2024/01/20 06:24:38;;;;;;;33.47;16.95;;;-7.00;99.90;;;;;;5068118;28;20203;-69
2024/01/20 06:27:24;;;;;;;30.77;17.38;;;-6.90;99.90;;;;;;5061596;28;20216;-69
2024/01/20 06:30:11;;;;;;;26.25;15.00;;;-7.20;99.90;;;;;;5061056;28;20259;-69
2024/01/20 06:32:59;;;;;;;28.40;17.73;;;-7.50;99.90;;;;;;5066146;28;20212;-70
2024/01/20 06:35:45;;;;;;;32.53;16.75;;;-7.90;99.90;;;;;;5065804;28;20224;-70
2024/01/20 06:38:31;;;;;;;29.45;16.98;;;-7.90;99.90;;;;;;5063747;28;20574;-69
2024/01/20 06:41:17;;;;;;;30.55;17.58;;;-7.90;99.90;;;;;;5062541;28;20229;-70
2024/01/20 06:44:03;;;;;;;27.63;16.23;;;-7.70;99.90;;;;;;5067548;28;20635;-70
2024/01/20 06:46:49;;;;;;;26.10;16.02;;;-7.60;99.90;;;;;;5065378;28;20303;-69
2024/01/20 06:49:39;;;;;;;30.83;16.00;;;-7.40;99.90;;;;;;5062703;28;20200;-69
2024/01/20 06:52:24;;;;;;;29.92;17.80;;;-7.70;99.90;;;;;;5065448;28;20690;-69
2024/01/20 06:55:10;;;;;;;29.13;18.38;;;-7.70;99.90;;;;;;5064963;28;20225;-70
2024/01/20 06:57:56;;;;;;;29.13;17.23;;;-7.90;99.90;;;;;;5064178;28;20564;-70
2024/01/20 07:00:42;;;;;;;36.92;18.23;;;-7.90;99.90;;;;;;5072089;28;20221;-71
2024/01/20 07:03:27;;;;;;;38.67;19.73;;;-8.00;99.90;;;;;;5070127;28;20204;-70
2024/01/20 07:06:15;;;;;;;47.33;23.45;;;-8.20;99.90;;;;;;5070420;28;20197;-71
2024/01/20 07:09:02;;;;;;;35.38;19.13;;;-8.10;99.90;;;;;;5069846;28;20311;-71
2024/01/20 07:11:48;;;;;;;36.70;19.38;;;-8.00;99.90;;;;;;5068031;28;20306;-74
2024/01/20 07:14:33;;;;;;;31.05;18.00;;;-7.80;99.90;;;;;;5064408;28;20708;-70
2024/01/20 07:17:19;;;;;;;37.10;20.17;;;-7.70;99.90;;;;;;5069228;28;20208;-70
2024/01/20 07:20:05;;;;;;;28.10;17.85;;;-7.80;99.90;;;;;;5070013;28;20580;-70
2024/01/20 07:22:52;;;;;;;34.35;19.17;;;-7.80;99.90;;;;;;5071638;28;20205;-70
2024/01/20 07:25:39;;;;;;;28.33;16.38;;;-7.70;99.90;;;;;;5069475;28;20204;-71
2024/01/20 07:28:24;;;;;;;29.52;16.73;;;-7.70;99.90;;;;;;5069170;28;20237;-72
2024/01/20 07:31:10;;;;;;;30.60;17.10;;;-7.60;99.90;;;;;;5064188;28;20305;-70
2024/01/20 07:33:55;;;;;;;28.90;16.02;;;-7.60;99.90;;;;;;5071421;28;20722;-70
2024/01/20 07:36:41;;;;;;;24.63;14.63;;;-7.50;99.90;;;;;;5064795;28;20201;-70
2024/01/20 07:39:28;;;;;;;24.33;14.18;;;-7.40;99.90;;;;;;5066361;28;20197;-70
2024/01/20 07:42:14;;;;;;;25.15;15.18;;;-7.40;99.90;;;;;;5070029;28;20362;-70
2024/01/20 07:45:00;;;;;;;25.08;15.65;;;-7.40;99.90;;;;;;5066545;28;20252;-73
2024/01/20 07:47:47;;;;;;;32.70;16.08;;;-7.60;99.90;;;;;;5057793;28;20278;-70
2024/01/20 07:50:33;;;;;;;27.65;15.27;;;-7.60;99.90;;;;;;5071142;28;20693;-71
2024/01/20 07:53:19;;;;;;;43.38;23.38;;;-7.60;99.90;;;;;;5062781;28;20680;-72
2024/01/20 07:56:09;;;;;;;66.43;35.80;;;-7.70;99.90;;;;;;5070906;28;20224;-70
2024/01/20 07:58:54;;;;;;;60.10;31.92;;;-7.90;99.90;;;;;;5069446;28;20243;-70
2024/01/20 08:01:40;;;;;;;42.17;21.73;;;-7.90;99.90;;;;;;5070941;28;20787;-70
2024/01/20 08:04:26;;;;;;;34.45;19.85;;;-7.70;99.90;;;;;;5065074;28;20674;-70
2024/01/20 08:07:11;;;;;;;33.25;18.83;;;-7.60;99.90;;;;;;5066701;28;20217;-69
2024/01/20 08:09:57;;;;;;;36.20;19.50;;;-7.50;99.90;;;;;;5067219;28;20203;-73
2024/01/20 08:12:44;;;;;;;31.02;19.17;;;-7.40;99.90;;;;;;5071227;28;20224;-70
2024/01/20 08:15:29;;;;;;;35.55;20.45;;;-7.30;99.90;;;;;;5070051;28;20296;-72
2024/01/20 08:18:15;;;;;;;31.38;18.10;;;-7.30;99.90;;;;;;5066865;28;20275;-70
2024/01/20 08:21:06;;;;;;;40.47;19.98;;;-7.10;99.90;;;;;;5065123;28;20228;-69
2024/01/20 08:23:51;;;;;;;31.55;18.95;;;-7.20;99.90;;;;;;5068817;28;20571;-72
2024/01/20 08:26:37;;;;;;;31.95;20.40;;;-7.40;99.90;;;;;;5059035;28;20204;-69
2024/01/20 08:29:24;;;;;;;32.28;19.85;;;-7.20;99.90;;;;;;5068294;28;20202;-70
2024/01/20 08:32:09;;;;;;;37.88;22.48;;;-7.00;99.90;;;;;;5070617;28;20612;-72
2024/01/20 08:34:55;;;;;;;37.08;22.40;;;-6.70;99.90;;;;;;5069783;28;20680;-70
2024/01/20 08:37:41;;;;;;;40.22;22.88;;;-6.80;99.90;;;;;;5060431;28;20205;-70
2024/01/20 08:40:26;;;;;;;40.78;24.10;;;-6.80;99.90;;;;;;5069575;28;20205;-71
2024/01/20 08:43:12;;;;;;;44.88;25.83;;;-6.70;99.90;;;;;;5068528;28;20224;-71
2024/01/20 08:46:00;;;;;;;43.83;24.92;;;-6.50;99.90;;;;;;5071080;28;20220;-70
2024/01/20 08:48:46;;;;;;;44.83;27.25;;;-6.40;99.90;;;;;;5060464;28;20239;-69
2024/01/20 08:51:31;;;;;;;40.72;25.75;;;-6.20;99.90;;;;;;5064179;28;20824;-72
2024/01/20 08:54:17;;;;;;;36.95;24.48;;;-6.20;99.90;;;;;;5069037;28;20217;-71
2024/01/20 08:57:02;;;;;;;47.88;25.40;;;-6.40;99.90;;;;;;5068359;28;20723;-70
2024/01/20 08:59:48;;;;;;;42.55;25.15;;;-6.50;99.90;;;;;;5069491;28;20204;-73
2024/01/20 09:02:35;;;;;;;42.80;26.40;;;-6.50;99.90;;;;;;5057812;28;20271;-70
2024/01/20 09:05:21;;;;;;;48.22;26.75;;;-6.50;99.90;;;;;;5067345;28;20207;-71
2024/01/20 09:08:09;;;;;;;39.03;25.08;;;-6.30;99.90;;;;;;5069369;28;20204;-71
2024/01/20 09:10:54;;;;;;;42.78;26.98;;;-6.10;99.90;;;;;;5069479;28;20236;-70
2024/01/20 09:13:40;;;;;;;41.90;27.52;;;-6.10;99.90;;;;;;5059364;28;20220;-70
2024/01/20 09:16:25;;;;;;;43.75;28.45;;;-6.20;99.90;;;;;;5069660;28;20230;-70
2024/01/20 09:19:13;;;;;;;47.72;28.80;;;-6.10;99.90;;;;;;5066814;28;20206;-70
2024/01/20 09:21:58;;;;;;;46.40;27.45;;;-5.90;99.90;;;;;;5069572;28;20330;-71
2024/01/20 09:24:44;;;;;;;51.08;30.85;;;-5.80;99.90;;;;;;5069908;28;20233;-70
2024/01/20 09:27:30;;;;;;;44.42;29.33;;;-5.80;99.90;;;;;;5069729;28;20209;-70
2024/01/20 09:30:15;;;;;;;41.85;28.33;;;-5.60;99.90;;;;;;5063509;28;20210;-72
2024/01/20 09:33:01;;;;;;;45.67;29.05;;;-5.50;99.90;;;;;;5069292;28;20290;-72
2024/01/20 09:35:48;;;;;;;53.13;30.77;;;-5.50;99.90;;;;;;5051936;28;20254;-69
2024/01/20 09:38:34;;;;;;;49.88;29.98;;;-5.60;99.90;;;;;;5070352;28;20197;-71
2024/01/20 09:41:19;;;;;;;42.88;27.95;;;-5.40;99.90;;;;;;5068700;28;20225;-71
2024/01/20 09:44:07;;;;;;;46.28;29.58;;;-5.20;99.90;;;;;;5068800;28;20655;-72
2024/01/20 09:46:52;;;;;;;53.13;31.58;;;-5.10;99.90;;;;;;5068706;28;20206;-70
2024/01/20 09:49:38;;;;;;;54.10;32.17;;;-5.10;99.90;;;;;;5070952;28;20213;-70
2024/01/20 09:52:28;;;;;;;57.05;34.83;;;-5.20;99.90;;;;;;5069147;28;20224;-72
2024/01/20 09:55:19;;;;;;;59.35;31.23;;;-5.10;99.90;;;;;;5069334;28;20590;-72
2024/01/20 09:58:06;;;;;;;51.88;31.65;;;-5.00;99.90;;;;;;5069019;28;20206;-70
2024/01/20 10:00:53;;;;;;;46.17;28.42;;;-4.80;99.90;;;;;;5070064;28;20226;-70
2024/01/20 10:03:43;;;;;;;47.95;28.33;;;-4.70;99.90;;;;;;5068905;28;20197;-70
2024/01/20 10:06:28;;;;;;;46.53;29.73;;;-4.40;99.90;;;;;;5058860;28;20202;-71
2024/01/20 10:09:15;;;;;;;48.88;30.00;;;-4.20;99.90;;;;;;5069747;28;20701;-71
2024/01/20 10:12:01;;;;;;;43.88;28.73;;;-4.00;99.90;;;;;;5069774;28;20265;-71
2024/01/20 10:14:46;;;;;;;41.13;27.35;;;-3.80;99.90;;;;;;5064329;28;20211;-70
2024/01/20 10:17:37;;;;;;;50.97;31.73;;;-3.60;99.90;;;;;;5053033;28;20611;-71
2024/01/20 10:20:24;;;;;;;45.50;29.50;;;-3.20;99.90;;;;;;5060869;28;20202;-71
2024/01/20 10:23:10;;;;;;;49.72;31.77;;;-3.00;99.90;;;;;;5056705;28;20200;-72
2024/01/20 10:26:02;;;;;;;52.80;30.60;;;-2.80;99.90;;;;;;5069869;28;20681;-70
2024/01/20 10:28:47;;;;;;;48.17;29.98;;;-2.50;99.90;;;;;;5069471;28;20203;-70
2024/01/20 10:31:33;;;;;;;50.38;30.20;;;-2.20;99.90;;;;;;5069797;28;20302;-71
2024/01/20 10:34:19;;;;;;;48.50;29.55;;;-1.90;99.90;;;;;;5069297;28;20605;-71
2024/01/20 10:37:09;;;;;;;56.38;32.58;;;-1.60;99.90;;;;;;5046865;28;20358;-71
2024/01/20 10:39:56;;;;;;;48.53;32.00;;;-1.40;99.90;;;;;;5059319;28;20254;-70
2024/01/20 10:42:46;;;;;;;50.83;28.80;;;-1.00;99.90;;;;;;5030828;28;20342;-70
2024/01/20 10:45:37;;;;;;;46.03;29.70;;;-0.70;99.90;;;;;;5038644;28;20199;-70
2024/01/20 10:48:27;;;;;;;57.88;32.65;;;-0.40;99.90;;;;;;5042495;28;20218;-71
2024/01/20 10:51:19;;;;;;;47.40;28.40;;;-0.20;99.90;;;;;;5045415;28;20350;-71
2024/01/20 10:54:07;;;;;;;56.25;29.52;;;0.00;99.90;;;;;;5064225;28;20203;-73
2024/01/20 10:56:53;;;;;;;42.85;29.08;;;0.30;99.90;;;;;;5042952;28;20738;-71
2024/01/20 10:59:42;;;;;;;47.67;26.45;;;0.70;99.90;;;;;;5041111;28;20193;-70
2024/01/20 11:02:28;;;;;;;49.47;29.40;;;1.00;99.90;;;;;;5049001;28;20255;-69
2024/01/20 11:05:22;;;;;;;47.30;29.48;;;1.20;99.90;;;;;;5048782;28;20541;-70
2024/01/20 11:08:09;;;;;;;45.22;29.00;;;1.50;99.90;;;;;;5065021;28;20200;-72
2024/01/20 11:10:55;;;;;;;43.17;26.85;;;1.30;99.90;;;;;;5041368;28;20229;-71
2024/01/20 11:13:41;;;;;;;40.45;26.73;;;1.30;99.90;;;;;;5030246;28;20344;-70
2024/01/20 11:16:32;;;;;;;40.78;26.25;;;1.40;99.90;;;;;;5046246;28;20287;-69
2024/01/20 11:19:19;;;;;;;39.25;26.63;;;1.40;99.90;;;;;;5038661;28;20209;-72
2024/01/20 11:22:05;;;;;;;37.75;25.25;;;1.50;99.90;;;;;;5050568;28;20239;-71
2024/01/20 11:24:53;;;;;;;37.88;23.20;;;1.40;99.90;;;;;;5044023;28;20710;-71
2024/01/20 11:27:47;;;;;;;38.90;25.50;;;1.20;99.90;;;;;;5041685;28;20332;-70
2024/01/20 11:30:35;;;;;;;36.40;23.65;;;1.10;99.90;;;;;;5040476;28;20197;-70
2024/01/20 11:33:24;;;;;;;27.35;19.75;;;1.00;99.90;;;;;;5054886;28;20231;-71
2024/01/20 11:36:10;;;;;;;23.60;18.25;;;1.00;99.90;;;;;;5031792;28;20276;-70
2024/01/20 11:38:57;;;;;;;26.30;18.20;;;1.10;99.90;;;;;;5048852;28;20704;-71
2024/01/20 11:41:42;;;;;;;29.20;18.73;;;1.40;99.90;;;;;;5052192;28;20232;-70
2024/01/20 11:44:31;;;;;;;34.05;20.58;;;1.40;99.90;;;;;;5055295;28;20220;-72
2024/01/20 11:47:16;;;;;;;25.58;18.40;;;1.40;99.90;;;;;;5047084;28;20209;-70
2024/01/20 11:50:03;;;;;;;29.23;20.67;;;1.30;99.90;;;;;;5044972;28;20267;-71
2024/01/20 11:52:49;;;;;;;30.98;21.45;;;1.20;99.90;;;;;;5050468;28;20688;-70
2024/01/20 11:55:35;;;;;;;30.77;20.33;;;1.10;99.90;;;;;;5040365;28;20683;-71
2024/01/20 11:58:20;;;;;;;30.88;21.00;;;0.90;99.90;;;;;;5053264;28;20271;-70
2024/01/20 12:01:06;;;;;;;31.23;21.25;;;0.80;99.90;;;;;;5045495;28;20239;-72
2024/01/20 12:03:54;;;;;;;33.17;22.05;;;0.70;99.90;;;;;;5053785;28;20212;-69
2024/01/20 12:06:42;;;;;;;28.42;20.60;;;0.50;99.90;;;;;;5059565;28;20189;-72
2024/01/20 12:09:28;;;;;;;29.95;20.77;;;0.50;99.90;;;;;;5052699;28;20590;-71
2024/01/20 12:12:14;;;;;;;29.88;20.48;;;0.50;99.90;;;;;;5052726;28;20233;-70
2024/01/20 12:14:59;;;;;;;33.70;22.08;;;0.30;99.90;;;;;;5048477;28;20216;-70
2024/01/20 12:17:45;;;;;;;36.45;21.58;;;0.30;99.90;;;;;;5046344;28;20251;-74
2024/01/20 12:20:30;;;;;;;37.47;20.95;;;0.40;99.90;;;;;;5045905;28;20204;-70
2024/01/20 12:23:21;;;;;;;32.63;20.63;;;0.40;99.90;;;;;;5047075;28;20208;-71
2024/01/20 12:26:12;;;;;;;32.00;23.20;;;0.50;99.90;;;;;;5036391;28;20209;-71
2024/01/20 12:28:58;;;;;;;32.55;20.25;;;0.50;99.90;;;;;;5041691;28;20200;-72
2024/01/20 12:31:44;;;;;;;34.40;23.30;;;0.60;99.90;;;;;;5049271;28;20831;-72
2024/01/20 12:34:30;;;;;;;34.95;23.52;;;0.70;99.90;;;;;;5049558;28;20219;-72
2024/01/20 12:37:15;;;;;;;35.95;25.70;;;0.70;99.90;;;;;;5050967;28;20631;-70
2024/01/20 12:40:05;;;;;;;44.45;27.30;;;1.00;99.90;;;;;;5041962;28;20212;-71
2024/01/20 12:42:51;;;;;;;40.72;25.83;;;1.20;99.90;;;;;;5037734;28;20755;-70
2024/01/20 12:45:37;;;;;;;40.03;27.23;;;1.50;99.90;;;;;;5053026;28;20193;-71
2024/01/20 12:48:22;;;;;;;42.38;26.00;;;1.90;99.90;;;;;;5055189;28;20254;-71
2024/01/20 12:51:08;;;;;;;37.03;25.00;;;2.20;99.90;;;;;;5066155;28;20354;-71
2024/01/20 12:53:54;;;;;;;33.30;23.27;;;2.70;99.90;;;;;;5055934;28;20259;-72
2024/01/20 12:56:41;;;;;;;38.17;23.25;;;3.20;99.90;;;;;;5054254;28;20219;-70
2024/01/20 12:59:26;;;;;;;33.65;22.25;;;3.60;99.90;;;;;;5055052;28;20211;-72
2024/01/20 13:02:12;;;;;;;39.13;24.00;;;4.10;99.90;;;;;;5056108;28;20315;-71
2024/01/20 13:04:57;;;;;;;31.95;21.55;;;4.50;99.90;;;;;;5050046;28;20580;-71
2024/01/20 13:07:43;;;;;;;36.00;21.65;;;5.00;99.90;;;;;;5052443;28;20204;-71
2024/01/20 13:10:29;;;;;;;33.65;20.55;;;5.60;94.70;;;;;;5068824;28;20343;-71
2024/01/20 13:13:16;;;;;;;33.10;20.60;;;5.70;92.30;;;;;;5055282;28;20301;-71
2024/01/20 13:16:02;;;;;;;29.67;19.77;;;6.00;90.50;;;;;;5068891;28;20197;-70
2024/01/20 13:18:47;;;;;;;31.75;19.25;;;6.40;80.80;;;;;;5055375;28;20202;-70
2024/01/20 13:21:33;;;;;;;35.55;20.90;;;6.40;75.10;;;;;;5059398;28;20323;-72
2024/01/20 13:24:18;;;;;;;31.70;21.00;;;6.60;74.10;;;;;;5057077;28;20209;-73
2024/01/20 13:27:06;;;;;;;29.83;19.05;;;6.90;70.70;;;;;;5057332;28;20252;-73
2024/01/20 13:29:52;;;;;;;28.85;19.10;;;6.90;66.80;;;;;;5049622;28;20318;-73
2024/01/20 13:32:38;;;;;;;30.58;20.30;;;6.30;67.20;;;;;;5054296;28;20224;-73
2024/01/20 13:35:23;;;;;;;27.67;18.38;;;5.30;73.00;;;;;;5056156;28;20565;-72
2024/01/20 13:38:09;;;;;;;26.90;17.30;;;5.20;84.50;;;;;;5061368;28;20229;-72
2024/01/20 13:40:55;;;;;;;25.23;17.17;;;6.40;77.50;;;;;;5049926;28;20328;-73
2024/01/20 13:43:40;;;;;;;23.45;17.05;;;7.30;56.90;;;;;;5060392;28;20694;-72
2024/01/20 13:46:27;;;;;;;23.90;16.27;;;8.10;44.90;;;;;;5057502;28;20201;-73
2024/01/20 13:49:12;;;;;;;26.77;17.37;;;8.80;30.60;;;;;;5057849;28;20437;-73
2024/01/20 13:51:58;;;;;;;30.93;17.73;;;6.90;33.00;;;;;;5070165;28;20516;-72
2024/01/20 13:54:44;;;;;;;28.40;17.85;;;5.00;56.40;;;;;;5048927;28;20430;-72
2024/01/20 13:57:29;;;;;;;27.25;19.30;;;3.30;87.00;;;;;;5061892;28;20229;-72
2024/01/20 14:00:16;;;;;;;29.50;19.65;;;2.00;99.90;;;;;;5061634;28;20720;-72
2024/01/20 14:03:03;;;;;;;34.08;22.45;;;1.10;99.90;;;;;;5051093;28;20306;-73
2024/01/20 14:05:49;;;;;;;31.70;22.65;;;0.50;99.90;;;;;;5050702;28;20559;-72